Map

Track Data

SID SEASON NUMBER BASIN SUBBASIN NAME ISO_TIME NATURE LAT LON WMO_WIND WMO_PRES WMO_AGENCY TRACK_TYPE DIST2LAND LANDFALL IFLAG USA_AGENCY USA_ATCF_ID USA_LAT USA_LON USA_RECORD USA_STATUS USA_WIND USA_PRES USA_SSHS USA_R34_NE USA_R34_SE USA_R34_SW USA_R34_NW USA_R50_NE USA_R50_SE USA_R50_SW USA_R50_NW USA_R64_NE USA_R64_SE USA_R64_SW USA_R64_NW USA_POCI USA_ROCI USA_RMW USA_EYE TOKYO_LAT TOKYO_LON TOKYO_GRADE TOKYO_WIND TOKYO_PRES TOKYO_R50_DIR TOKYO_R50_LONG TOKYO_R50_SHORT TOKYO_R30_DIR TOKYO_R30_LONG TOKYO_R30_SHORT TOKYO_LAND CMA_LAT CMA_LON CMA_CAT CMA_WIND CMA_PRES HKO_LAT HKO_LON HKO_CAT HKO_WIND HKO_PRES NEWDELHI_LAT NEWDELHI_LON NEWDELHI_GRADE NEWDELHI_WIND NEWDELHI_PRES NEWDELHI_CI NEWDELHI_DP NEWDELHI_POCI REUNION_LAT REUNION_LON REUNION_TYPE REUNION_WIND REUNION_PRES REUNION_TNUM REUNION_CI REUNION_RMW REUNION_R34_NE REUNION_R34_SE REUNION_R34_SW REUNION_R34_NW REUNION_R50_NE REUNION_R50_SE REUNION_R50_SW REUNION_R50_NW REUNION_R64_NE REUNION_R64_SE REUNION_R64_SW REUNION_R64_NW BOM_LAT BOM_LON BOM_TYPE BOM_WIND BOM_PRES BOM_TNUM BOM_CI BOM_RMW BOM_R34_NE BOM_R34_SE BOM_R34_SW BOM_R34_NW BOM_R50_NE BOM_R50_SE BOM_R50_SW BOM_R50_NW BOM_R64_NE BOM_R64_SE BOM_R64_SW BOM_R64_NW BOM_ROCI BOM_POCI BOM_EYE BOM_POS_METHOD BOM_PRES_METHOD NADI_LAT NADI_LON NADI_CAT NADI_WIND NADI_PRES WELLINGTON_LAT WELLINGTON_LON WELLINGTON_WIND WELLINGTON_PRES DS824_LAT DS824_LON DS824_STAGE DS824_WIND DS824_PRES TD9636_LAT TD9636_LON TD9636_STAGE TD9636_WIND TD9636_PRES TD9635_LAT TD9635_LON TD9635_WIND TD9635_PRES TD9635_ROCI NEUMANN_LAT NEUMANN_LON NEUMANN_CLASS NEUMANN_WIND NEUMANN_PRES MLC_LAT MLC_LON MLC_CLASS MLC_WIND MLC_PRES USA_GUST BOM_GUST BOM_GUST_PER REUNION_GUST REUNION_GUST_PER USA_SEAHGT USA_SEARAD_NE USA_SEARAD_SE USA_SEARAD_SW USA_SEARAD_NW STORM_SPEED STORM_DIR
1956016S15140 1956 5 SP EA NOT_NAMED 1956-01-15 23:00:00 NR -15.0000 140.000 1000 bom main 170 167 ______O_______ -1 -15.0000 140.000 1000 7 195
1956016S15140 1956 5 SP EA NOT_NAMED 1956-01-16 00:00:00 TS -15.1079 139.955 main 167 167 ______P__O____ -1 -15.1119 139.933 -15.1000 140.000 TC 30 1000 8 200
1956016S15140 1956 5 SP EA NOT_NAMED 1956-01-16 03:00:00 TS -15.4694 139.819 main 177 144 ______P__P____ -1 -15.4472 139.738 -15.5027 139.941 TC 8 199
1956016S15140 1956 5 SP EA NOT_NAMED 1956-01-16 06:00:00 TS -15.8307 139.702 main 144 99 ______P__P____ -1 -15.7811 139.564 -15.8969 139.886 TC 8 194
1956016S15140 1956 5 SP EA NOT_NAMED 1956-01-16 09:00:00 TS -16.1932 139.632 main 99 70 ______P__P____ -1 -16.1126 139.428 -16.2738 139.837 TC 7 190
1956016S15140 1956 5 SP EA NOT_NAMED 1956-01-16 12:00:00 TS -16.5329 139.572 main 70 48 ______P__P____ -1 -16.4408 139.348 -16.6250 139.797 TC 7 186
1956016S15140 1956 5 SP EA NOT_NAMED 1956-01-16 15:00:00 TS -16.8534 139.555 main 44 35 ______P__P____ -1 -16.7650 139.340 -16.9419 139.770 TC 6 0
1956016S15140 1956 5 SP EA NOT_NAMED 1956-01-16 18:00:00 TS -17.1499 139.591 main 35 15 ______P__P____ -1 -17.0841 139.422 -17.2157 139.759 TC 6 168
1956016S15140 1956 5 SP EA NOT_NAMED 1956-01-16 21:00:00 TS -17.4176 139.689 main 15 10 ______P__P____ -1 -17.3972 139.610 -17.4379 139.768 TC 6 158
1956016S15140 1956 5 SP EA NOT_NAMED 1956-01-16 22:00:00 TS -17.4995 139.738 bom main 10 10 ______O__P____ -1 -17.5000 139.700 -17.4990 139.776 TC 4 141
1956016S15140 1956 5 SP EA NOT_NAMED 1956-01-16 23:00:00 TS -17.5236 139.783 994 bom main 11 11 ______O__PO___ -1 -17.6000 139.800 994 -17.5532 139.787 TC -17.1000 139.700 2 2 59
1956016S15140 1956 5 SP EA NOT_NAMED 1956-01-17 00:00:00 TS -17.4642 139.802 main 11 11 O_____P__OP___ jtwc_sh SH111956 -17.1000 139.700 -1 -17.6870 139.890 -17.6000 139.800 TC 40 994 -17.1111 139.729 2 2 72
1956016S15140 1956 5 SP EA NOT_NAMED 1956-01-17 03:00:00 TS -17.4873 139.901 main 15 15 P_____P__PP___ SH111956 -17.1600 139.812 -1 -17.8630 140.099 -17.6969 139.857 TC -17.1433 139.814 2 2 94
1956016S15140 1956 5 SP EA NOT_NAMED 1956-01-17 06:00:00 TS -17.4755 139.979 main 22 22 O_____P__PP___ jtwc_sh SH111956 -17.2000 139.900 -1 -17.9311 140.230 -17.7375 139.935 TC -17.1713 139.893 2 1 75
1956016S15140 1956 5 SP EA NOT_NAMED 1956-01-17 09:00:00 TS -17.4516 140.039 main 22 22 P_____P__PP___ SH111956 -17.2075 139.950 -1 -17.9167 140.303 -17.7344 140.030 TC -17.1919 139.962 2 1 69
1956016S15140 1956 5 SP EA NOT_NAMED 1956-01-17 11:00:00 TS -17.4387 140.078 main 33 33 P_____P__PO___ SH111956 -17.2026 139.980 -1 -17.8738 140.330 -17.7142 140.101 TC -17.2000 140.000 2 1 67
1956016S15140 1956 5 SP EA NOT_NAMED 1956-01-17 12:00:00 TS -17.4295 140.099 main 33 33 O_____P__PP___ jtwc_sh SH111956 -17.2000 140.000 -1 -17.8451 140.339 -17.7001 140.138 TC -17.2021 140.016 2 2 65
1956016S15140 1956 5 SP EA NOT_NAMED 1956-01-17 15:00:00 TS -17.3982 140.175 main 33 33 P_____P__PP___ SH111956 -17.2000 140.100 -1 -17.7415 140.361 -17.6470 140.253 TC -17.2023 140.062 2 2 66
1956016S15140 1956 5 SP EA NOT_NAMED 1956-01-17 18:00:00 TS -17.3634 140.256 main 33 33 O_____P__PP___ jtwc_sh SH111956 -17.2000 140.200 -1 -17.6310 140.387 -17.5876 140.372 TC -17.1984 140.119 2 2 64
1956016S15140 1956 5 SP EA NOT_NAMED 1956-01-17 21:00:00 TS -17.3310 140.319 main 44 39 P_____P__PP___ SH111956 -17.1924 140.228 -1 -17.5388 140.440 -17.5344 140.489 TC -17.1968 140.210 2 2 69
1956016S15140 1956 5 SP EA NOT_NAMED 1956-01-17 23:00:00 TS -17.3194 140.378 998 bom main 39 39 P_____O__PO___ SH111956 -17.1943 140.263 -1 -17.5000 140.500 998 -17.5086 140.564 TC -17.2000 140.300 1 2 84
1956016S15140 1956 5 SP EA NOT_NAMED 1956-01-18 00:00:00 TS -17.3210 140.423 main 39 30 O_____P__OP___ jtwc_sh SH111956 -17.2000 140.300 -1 -17.4988 140.549 -17.5000 140.600 TC 35 998 -17.2063 140.367 1 3 97
1956016S15140 1956 5 SP EA NOT_NAMED 1956-01-18 03:00:00 TS -17.3451 140.607 main 30 15 P_____P__PP___ SH111956 -17.2500 140.512 -1 -17.4979 140.701 -17.4963 140.699 TC -17.2312 140.611 1 4 98
1956016S15140 1956 5 SP EA NOT_NAMED 1956-01-18 05:00:00 TS -17.3642 140.752 bom main 10 10 P_____O__PP___ SH111956 -17.2864 140.700 -1 -17.5000 140.800 -17.4977 140.766 TC -17.2504 140.792 1 4 97
1956016S15140 1956 5 SP EA NOT_NAMED 1956-01-18 06:00:00 TS -17.3703 140.824 main 10 0 O_____P__OP___ jtwc_sh SH111956 -17.3000 140.800 -1 -17.4915 140.833 -17.5000 140.800 TC -17.2601 140.885 1 4 91
1956016S15140 1956 5 SP EA NOT_NAMED 1956-01-18 09:00:00 TS -17.3685 141.039 main 0 0 P_____P__PP___ SH111956 -17.3076 141.138 -1 -17.4533 140.901 -17.4872 140.868 TC -17.2866 141.149 1 4 88
1956016S15140 1956 5 SP EA NOT_NAMED 1956-01-18 11:00:00 TS -17.3617 141.160 main 0 0 P_____P__PO___ SH111956 -17.3027 141.332 -1 -17.4253 140.932 -17.4781 140.907 TC -17.3000 141.300 1 3 85
1956016S15140 1956 5 SP EA NOT_NAMED 1956-01-18 12:00:00 TS -17.3560 141.200 main 0 0 O_____P__PP___ jtwc_sh SH111956 -17.3000 141.400 -1 -17.4130 140.946 -17.4749 140.926 TC -17.2919 141.325 1 1 76
1956016S15140 1956 5 SP EA NOT_NAMED 1956-01-18 15:00:00 TS -17.3453 141.236 main 0 0 P_____P__PP___ SH111956 -17.2999 141.415 -1 -17.3926 140.998 -17.4766 140.997 TC -17.2577 141.357 1 1 85
1956016S15140 1956 5 SP EA NOT_NAMED 1956-01-18 18:00:00 TS -17.3505 141.276 main 0 0 O_____P__PP___ jtwc_sh SH111956 -17.3000 141.400 -1 -17.4137 141.088 -17.5058 141.102 TC -17.2331 141.391 1 2 100
1956016S15140 1956 5 SP EA NOT_NAMED 1956-01-18 21:00:00 TS -17.3726 141.403 main 0 0 P_____P__PP___ SH111956 -17.2696 141.495 -1 -17.4980 141.244 -17.5759 141.263 TC -17.2501 141.519 1 3 104
1956016S15140 1956 5 SP EA NOT_NAMED 1956-01-18 23:00:00 TS -17.4211 141.569 994 bom main 0 0 P_____O__PO___ SH111956 -17.2769 141.666 -1 -17.6000 141.400 994 -17.6518 141.411 TC -17.3000 141.700 1 6 108
1956016S15140 1956 5 SP EA NOT_NAMED 1956-01-19 00:00:00 TS -17.4645 141.692 main 0 0 O_____P__OP___ jtwc_sh SH111956 -17.3000 141.800 -1 -17.6843 141.505 993 -17.7000 141.500 TC 40 994 -17.3380 141.856 1 10 111
1956016S15140 1956 5 SP EA NOT_NAMED 1956-01-19 03:00:00 TS -17.6549 142.198 main 0 0 P_____P__PP___ SH111956 -17.4553 142.425 -1 -17.9564 141.860 992 -17.9091 141.825 TC 42 993 -17.4985 142.456 1 11 111
1956016S15140 1956 5 SP EA NOT_NAMED 1956-01-19 05:00:00 TS -17.8015 142.597 992 bom main 0 0 P_____O__PP___ SH111956 -17.6116 142.940 -1 -18.1000 142.100 992 -18.0442 142.072 TC 44 992 -17.6401 142.929 1 12 110
1956016S15140 1956 5 SP EA NOT_NAMED 1956-01-19 06:00:00 TS -17.8594 142.783 main 0 0 O_____P__OP___ jtwc_sh SH111956 -17.7000 143.200 -1 -18.0771 142.137 992 -18.1000 142.200 TC 45 992 -17.7202 143.178 1 10 104
1956016S15140 1956 5 SP EA NOT_NAMED 1956-01-19 09:00:00 TS -17.9570 143.264 main 0 0 P_____P__PP___ SH111956 -17.9700 143.930 -1 -17.8485 142.148 992 -18.0029 142.380 TC 43 992 -17.9934 143.930 1 9 102
1956016S15140 1956 5 SP EA NOT_NAMED 1956-01-19 11:00:00 TS -18.0225 143.570 main 0 0 P_____P__PO___ SH111956 -18.1834 144.390 -1 -17.6616 142.173 993 -17.8839 142.498 TC 42 993 -18.2000 144.400 2 9 104
1956016S15140 1956 5 SP EA NOT_NAMED 1956-01-19 12:00:00 TS -18.0642 143.717 main 0 0 O_____P__PP___ jtwc_sh SH111956 -18.3000 144.600 -1 -17.5874 142.220 993 -17.8315 142.578 TC 42 993 -18.3019 144.587 2 10 113
1956016S15140 1956 5 SP EA NOT_NAMED 1956-01-19 15:00:00 TS -18.2757 144.195 main 0 0 P_____P__PP___ SH111956 -18.6921 145.130 -1 -17.5593 142.619 994 -17.7948 142.987 TC 41 994 -18.6401 145.107 2 11 118
1956016S15140 1956 5 SP EA NOT_NAMED 1956-01-19 17:00:00 TS -18.5139 144.598 995 bom main 0 0 P_____O__PP___ SH111956 -18.9669 145.444 -1 -17.8000 143.200 995 -17.9476 143.472 TC 40 994 -18.8882 145.431 2 15 123
1956016S15140 1956 5 SP EA NOT_NAMED 1956-01-19 18:00:00 TS -18.6856 144.859 main 0 0 O_____P__OP___ jtwc_sh SH111956 -19.1000 145.600 -1 -18.1103 143.704 995 -18.1000 143.800 TC 40 995 -19.0176 145.590 2 21 124
1956016S15140 1956 5 SP EA NOT_NAMED 1956-01-19 21:00:00 TS -19.2946 145.799 main 0 0 P_____P__PP___ SH111956 -19.4422 146.086 -1 -19.2073 145.458 996 -18.9595 145.296 TC 37 996 -19.4219 146.069 2 21 124
1956016S15140 1956 5 SP EA NOT_NAMED 1956-01-19 23:00:00 TS -19.6903 146.417 997 bom main 0 0 P_____O__PO___ SH111956 -19.6744 146.422 -1 -19.8000 146.500 997 -19.6029 146.339 TC 35 996 -19.7000 146.400 1 21 124
1956016S15140 1956 5 SP EA NOT_NAMED 1956-01-20 00:00:00 TS -19.8741 146.701 main 0 0 O_____P__OP___ jtwc_sh SH111956 -19.8000 146.600 -1 -19.9860 146.914 996 -19.9000 146.800 TC 35 997 -19.8843 146.593 1 18 128
1956016S15140 1956 5 SP EA NOT_NAMED 1956-01-20 02:00:00 TS -20.2370 147.173 996 bom main 0 0 P_____O__PP___ SH111956 -20.0951 146.995 -1 -20.2000 147.500 996 -20.5211 147.383 TC 33 997 -20.2736 146.990 1 16 131
1956016S15140 1956 5 SP EA NOT_NAMED 1956-01-20 03:00:00 TS -20.4037 147.350 main 0 0 P_____P__PP___ SH111956 -20.2501 147.200 -1 -20.2298 147.569 996 -20.8199 147.587 TC 32 998 -20.4688 147.193 1 12 138
1956016S15140 1956 5 SP EA NOT_NAMED 1956-01-20 06:00:00 TS -20.8109 147.726 main 0 0 O_____P__PP___ jtwc_sh SH111956 -20.7000 147.800 -1 -20.0900 147.285 997 -21.5668 147.948 TC 30 999 -20.9980 147.796 1 10 137
1956016S15140 1956 5 SP EA NOT_NAMED 1956-01-20 08:00:00 TS -21.0403 147.975 999 bom main 0 0 P_____O__PP___ SH111956 -21.0468 148.165 -1 -20.0000 147.300 999 -21.8529 148.063 TC 28 1000 -21.2550 148.181 1 10 129
1956016S15140 1956 5 SP EA NOT_NAMED 1956-01-20 09:00:00 TS -21.1349 148.154 main 0 0 P_____P__PP___ SH111956 -21.1999 148.337 -1 -20.0286 147.623 999 -21.9061 148.109 TC 27 1000 -21.3403 148.363 1 11 109
1956016S15140 1956 5 SP EA NOT_NAMED 1956-01-20 11:00:00 TS -21.2142 148.506 1002 bom main 0 0 P_____O__PO___ SH111956 -21.3913 148.655 -1 -20.1000 148.300 1002 -21.7885 148.219 TC 25 1001 -21.4000 148.700 1 9 97
1956016S15140 1956 5 SP EA NOT_NAMED 1956-01-20 12:00:00 TS -21.1898 148.622 main 0 0 O_____P__OP___ jtwc_sh SH111956 -21.4000 148.800 -1 -20.2240 148.365 1001 -21.6000 148.300 TC 25 1002 -21.3248 148.846 1 11 36
1956016S15140 1956 5 SP EA NOT_NAMED 1956-01-20 15:00:00 TS -20.6490 148.949 1000 bom main 11 10 P_____O__PP___ SH111956 -20.9998 149.181 -1 -20.1000 148.400 1000 -20.2732 148.754 TC 27 1001 -20.8723 149.228 1 16 26
1956016S15140 1956 5 SP EA NOT_NAMED 1956-01-20 17:00:00 TS -19.9755 149.259 1000 bom main 62 62 P_____O__PP___ SH111956 -20.5419 149.397 -1 -19.0000 149.000 1000 -19.3498 149.055 TC 29 1000 -20.4439 149.445 1 22 16
1956016S15140 1956 5 SP EA NOT_NAMED 1956-01-20 18:00:00 TS -19.6047 149.257 main 94 94 O_____P__OP___ jtwc_sh SH111956 -20.3000 149.500 -1 -18.7415 149.259 1000 -19.0000 149.200 TC 30 1000 -20.2104 149.545 1 13 13
1956016S15140 1956 5 SP EA NOT_NAMED 1956-01-20 21:00:00 TS -19.1261 149.467 main 152 152 P_____P__PP___ SH111956 -19.6125 149.815 -1 -18.8542 149.822 1000 -18.7648 149.591 TC 30 1000 -19.5078 149.823 1 9 20
1956016S15140 1956 5 SP EA NOT_NAMED 1956-01-20 23:00:00 TS -18.8758 149.533 1000 bom main 172 172 P_____O__PO___ SH111956 -19.1819 150.008 -1 -19.0000 150.000 1000 -18.8045 149.857 TC 30 1000 -19.1000 150.000 1 8 7
1956016S15140 1956 5 SP EA NOT_NAMED 1956-01-21 00:00:00 TS -18.7273 149.511 main 192 192 O_____P__OP___ jtwc_sh SH111956 -19.0000 150.100 -1 -18.8589 149.964 1000 -18.8000 150.000 TC 30 1000 -18.9571 150.098 1 8 19
1956016S15140 1956 5 SP EA NOT_NAMED 1956-01-21 02:00:00 TS -18.4915 149.674 1000 bom main 222 222 P_____O__PP___ SH111956 -18.7229 150.269 -1 -18.5000 150.000 1000 -18.5322 150.367 TC 30 1000 -18.7051 150.289 1 9 37
1956016S15140 1956 5 SP EA NOT_NAMED 1956-01-21 03:00:00 TS -18.3830 149.789 main 237 237 P_____P__PP___ SH111956 -18.6174 150.350 -1 -18.3162 150.286 1000 -18.3778 150.553 TC 30 1000 -18.5968 150.382 1 9 49
1956016S15140 1956 5 SP EA NOT_NAMED 1956-01-21 05:00:00 TS -18.1993 150.033 1000 bom main 266 266 P_____O__PP___ SH111956 -18.4588 150.513 -1 -18.0000 151.000 1000 -18.0978 150.880 TC 30 1000 -18.4173 150.565 1 8 52
1956016S15140 1956 5 SP EA NOT_NAMED 1956-01-21 06:00:00 TS -18.1324 150.126 main 281 281 O_____P__OP___ jtwc_sh SH111956 -18.4000 150.600 -1 -17.9124 151.153 1000 -18.0000 151.000 TC 30 1000 -18.3467 150.655 1 5 56
1956016S15140 1956 5 SP EA NOT_NAMED 1956-01-21 09:00:00 TS -18.0166 150.321 main 301 301 P_____P__PP___ SH111956 -18.2175 150.900 -1 -17.8927 151.141 1000 -17.9592 151.108 TC 30 1000 -18.2161 150.922 1 4 66
1956016S15140 1956 5 SP EA NOT_NAMED 1956-01-21 11:00:00 TS -18.0064 150.428 1001 bom main 307 307 P_____O__PO___ SH111956 -18.1829 151.103 -1 -18.0000 151.000 1001 -18.0421 151.100 TC 30 1000 -18.2000 151.100 1 3 90
1956016S15140 1956 5 SP EA NOT_NAMED 1956-01-21 12:00:00 TS -18.0155 150.504 main 313 310 O_____P__OP___ jtwc_sh SH111956 -18.2000 151.200 -1 -18.0491 151.069 1001 -18.1000 151.100 TC 30 1001 -18.2196 151.223 1 5 107
1956016S15140 1956 5 SP EA NOT_NAMED 1956-01-21 15:00:00 TS -18.1074 150.778 main 323 322 P_____P__PP___ SH111956 -18.4124 151.450 -1 -18.2840 151.385 1001 -18.3019 151.355 TC 28 1001 -18.3760 151.606 1 6 114
1956016S15140 1956 5 SP EA NOT_NAMED 1956-01-21 18:00:00 TS -18.2464 151.057 main 336 329 O_____P__PP___ jtwc_sh SH111956 -18.7000 151.700 -1 -18.5840 151.744 1001 -18.5691 151.667 TC 27 1001 -18.6179 151.947 1 6 115
1956016S15140 1956 5 SP EA NOT_NAMED 1956-01-21 21:00:00 TS -18.3517 151.321 main 337 337 P_____P__PP___ SH111956 -18.8801 152.097 -1 -18.8647 151.984 1001 -18.8266 151.896 TC 26 1001 -18.8676 152.164 1 5 114
1956016S15140 1956 5 SP EA NOT_NAMED 1956-01-21 23:00:00 TS -18.3998 151.426 1002 bom main 345 345 P_____O__PO___ SH111956 -18.9666 152.277 -1 -19.0000 152.000 1002 -18.9561 151.932 TC 25 1001 -19.0000 152.200 1 3 120
1956016S15140 1956 5 SP EA NOT_NAMED 1956-01-22 00:00:00 TS -18.4142 151.438 main 345 337 O_____P__OP___ jtwc_sh SH111956 -19.0000 152.300 -1 -19.0456 151.935 1001 -19.0000 151.900 TC 25 1002 -19.0405 152.156 1 2 248
1956016S15140 1956 5 SP EA NOT_NAMED 1956-01-22 03:00:00 TS -18.4391 151.324 main 337 329 P_____P__PP___ SH111956 -19.0876 152.013 -1 -19.1185 151.593 1000 -19.0537 151.565 TC 27 1001 -19.1237 151.879 1 3 267
1956016S15140 1956 5 SP EA NOT_NAMED 1956-01-22 05:00:00 TS -18.4289 151.179 1000 bom main 329 321 P_____O__PP___ SH111956 -19.1058 151.676 -1 -19.1000 151.300 1000 -19.0308 151.258 TC 29 1000 -19.1435 151.609 1 4 277
1956016S15140 1956 5 SP EA NOT_NAMED 1956-01-22 06:00:00 TS -18.4134 151.101 main 321 306 O_____P__OP___ jtwc_sh SH111956 -19.1000 151.500 -1 -19.0652 151.147 1000 -19.0000 151.100 TC 30 1000 -19.1416 151.458 1 5 289
1956016S15140 1956 5 SP EA NOT_NAMED 1956-01-22 09:00:00 TS -18.3269 150.864 main 314 299 P_____P__PP___ SH111956 -19.0526 151.035 -1 -18.8603 150.635 1000 -18.8238 150.633 TC 30 1000 -19.0844 150.990 1 5 295
1956016S15140 1956 5 SP EA NOT_NAMED 1956-01-22 11:00:00 TS -18.2369 150.709 main 308 308 P_____P__PO___ SH111956 -18.9641 150.736 -1 -18.6636 150.285 1000 -18.6456 150.318 TC 30 1000 -19.0000 150.700 1 5 304
1956016S15140 1956 5 SP EA NOT_NAMED 1956-01-22 12:00:00 TS -18.1830 150.641 main 301 301 O_____P__PP___ jtwc_sh SH111956 -18.9000 150.600 -1 -18.5546 150.118 1000 -18.5444 150.167 TC 30 1000 -18.9378 150.581 1 5 318
1956016S15140 1956 5 SP EA NOT_NAMED 1956-01-22 15:00:00 TS -17.9929 150.480 main 313 313 P_____P__PP___ SH111956 -18.6149 150.255 -1 -18.2139 149.690 1000 -18.2176 149.768 TC 30 1000 -18.6876 150.244 1 5 326
1956016S15140 1956 5 SP EA NOT_NAMED 1956-01-22 17:00:00 TS -17.8605 150.411 1000 bom main 316 316 P_____O__PP___ SH111956 -18.3990 150.075 -1 -18.0000 149.500 1000 -18.0013 149.571 TC 30 1000 -18.4874 150.049 1 4 335
1956016S15140 1956 5 SP EA NOT_NAMED 1956-01-22 18:00:00 TS -17.7997 150.389 main 326 326 O_____P__OP___ jtwc_sh SH111956 -18.3000 150.000 -1 -17.9146 149.447 1000 -17.9000 149.500 TC 30 1000 -18.3832 149.963 1 3 345
1956016S15140 1956 5 SP EA NOT_NAMED 1956-01-22 21:00:00 TS -17.6407 150.350 main 345 340 P_____P__PP___ SH111956 -18.0774 149.790 -1 -17.6647 149.388 1000 -17.6474 149.391 TC 30 1000 -18.0779 149.767 1 3 0
1956016S15140 1956 5 SP EA NOT_NAMED 1956-01-22 23:00:00 TS -17.5457 150.362 1000 bom main 355 355 P_____O__PO___ SH111956 -17.9557 149.714 -1 -17.5000 149.400 1000 -17.4824 149.387 TC 30 1000 -17.9000 149.700 1 3 0
1956016S15140 1956 5 SP EA NOT_NAMED 1956-01-23 00:00:00 TS -17.5031 150.379 main 355 355 O_____P__OP___ jtwc_sh SH111956 -17.9000 149.700 -1 -17.4166 149.392 999 -17.4000 149.400 TC 30 1000 -17.8381 149.687 1 3 33
1956016S15140 1956 5 SP EA NOT_NAMED 1956-01-23 03:00:00 TS -17.3771 150.476 main 370 370 P_____P__PP___ SH111956 -17.7350 149.748 -1 -17.1666 149.416 998 -17.1349 149.448 TC 32 999 -17.6857 149.727 1 3 44
1956016S15140 1956 5 SP EA NOT_NAMED 1956-01-23 05:00:00 TS -17.3047 150.580 998 bom main 385 385 P_____O__PP___ SH111956 -17.6417 149.842 -1 -17.0000 149.500 998 -16.9719 149.536 TC 34 998 -17.6048 149.808 1 4 56
1956016S15140 1956 5 SP EA NOT_NAMED 1956-01-23 06:00:00 TS -17.2713 150.641 main 385 385 O_____P__OP___ jtwc_sh SH111956 -17.6000 149.900 -1 -16.9021 149.569 998 -16.9000 149.600 TC 35 998 -17.5684 149.861 1 4 65
1956016S15140 1956 5 SP EA NOT_NAMED 1956-01-23 09:00:00 TS -17.1884 150.843 main 405 405 P_____P__PP___ SH111956 -17.5000 150.092 -1 -16.6229 149.865 998 -16.7019 149.863 TC 35 998 -17.4675 150.055 1 4 71
1956016S15140 1956 5 SP EA NOT_NAMED 1956-01-23 11:00:00 TS -17.1538 150.993 998 bom main 417 417 P_____O__PO___ SH111956 -17.4364 150.234 -1 -16.5000 150.100 998 -16.6196 150.084 TC 35 998 -17.4000 150.200 1 4 77
1956016S15140 1956 5 SP EA NOT_NAMED 1956-01-23 12:00:00 TS -17.1416 151.063 main 432 432 O_____P__OP___ jtwc_sh SH111956 -17.4000 150.300 -1 -16.4761 150.207 998 -16.6000 150.200 TC 35 998 -17.3446 150.242 1 4 84
1956016S15140 1956 5 SP EA NOT_NAMED 1956-01-23 15:00:00 TS -17.1269 151.270 main 444 444 P_____P__PP___ SH111956 -17.2499 150.435 -1 -16.5270 150.545 998 -16.6324 150.530 TC 35 998 -17.1726 150.382 1 4 92
1956016S15140 1956 5 SP EA NOT_NAMED 1956-01-23 18:00:00 TS -17.1531 151.494 main 448 448 O_____P__PP___ jtwc_sh SH111956 -17.1000 150.600 -1 -16.7188 150.899 998 -16.7867 150.880 TC 35 998 -17.0194 150.572 1 4 100
1956016S15140 1956 5 SP EA NOT_NAMED 1956-01-23 21:00:00 TS -17.2076 151.729 main 462 462 P_____P__PP___ SH111956 -16.9696 150.818 -1 -16.9956 151.260 998 -17.0227 151.239 TC 35 998 -16.9197 150.849 1 5 106
1956016S15140 1956 5 SP EA NOT_NAMED 1956-01-23 23:00:00 TS -17.2658 151.912 998 bom main 468 468 P_____O__PO___ SH111956 -16.9133 151.047 -1 -17.2000 151.500 998 -17.2054 151.480 TC 35 998 -16.9000 151.100 1 6 108
1956016S15140 1956 5 SP EA NOT_NAMED 1956-01-24 00:00:00 TS -17.2979 152.019 main 475 475 O_____P__OP___ jtwc_sh SH111956 -16.9000 151.200 -1 -17.2785 151.621 -17.3000 151.600 TC 35 998 -16.8928 151.268 1 7 107
1956016S15140 1956 5 SP EA NOT_NAMED 1956-01-24 03:00:00 TS -17.4134 152.402 main 498 498 P_____P__PP___ SH111956 -16.8905 151.863 -1 -17.5374 151.990 -17.5513 151.970 TC -16.9227 151.867 1 8 111
1956016S15140 1956 5 SP EA NOT_NAMED 1956-01-24 06:00:00 TS -17.5878 152.831 main 517 517 O_____P__PP___ jtwc_sh SH111956 -17.0000 152.600 -1 -17.8240 152.361 -17.8346 152.346 TC -17.0440 152.541 1 9 116
1956016S15140 1956 5 SP EA NOT_NAMED 1956-01-24 09:00:00 TS -17.8157 153.258 main 549 543 P_____P__PP___ SH111956 -17.2098 153.195 -1 -18.1284 152.727 -18.1389 152.719 TC -17.2752 153.205 1 9 122
1956016S15140 1956 5 SP EA NOT_NAMED 1956-01-24 11:00:00 TS -18.0062 153.534 main 556 556 P_____P__PO___ SH111956 -17.4468 153.542 -1 -18.3364 152.966 -18.3482 152.963 TC -17.5000 153.600 2 10 128
1956016S15140 1956 5 SP EA NOT_NAMED 1956-01-24 12:00:00 TS -18.1147 153.663 main 570 555 O_____P__PP___ jtwc_sh SH111956 -17.6000 153.700 -1 -18.4409 153.083 -18.4535 153.083 TC -17.6453 153.757 2 10 136
1956016S15140 1956 5 SP EA NOT_NAMED 1956-01-24 15:00:00 TS -18.4909 154.028 main 555 541 P_____P__PP___ SH111956 -18.2199 154.137 -1 -18.7518 153.423 -18.7676 153.431 TC -18.1801 154.169 2 10 140
1956016S15140 1956 5 SP EA NOT_NAMED 1956-01-24 18:00:00 TS -18.8902 154.351 main 548 540 O_____P__PP___ jtwc_sh SH111956 -18.9000 154.500 -1 -19.0515 153.740 -19.0705 153.754 TC -18.7998 154.512 2 9 143
1956016S15140 1956 5 SP EA NOT_NAMED 1956-01-24 21:00:00 TS -19.2392 154.619 main 540 532 P_____P__PP___ SH111956 -19.4374 154.823 -1 -19.3304 154.028 -19.3515 154.047 TC -19.4230 154.812 2 8 144
1956016S15140 1956 5 SP EA NOT_NAMED 1956-01-24 23:00:00 TS -19.4525 154.780 986 bom main 533 533 P_____O__PO___ SH111956 -19.7526 155.011 -1 -19.5000 154.200 986 -19.5214 154.220 TC -19.8000 155.000 1 8 144
1956016S15140 1956 5 SP EA NOT_NAMED 1956-01-25 00:00:00 TS -19.5497 154.859 main 541 528 O_____P__OP___ jtwc_sh SH111956 -19.9000 155.100 -1 -19.5684 154.271 -19.6000 154.300 TC 50 986 -19.9504 155.102 1 7 142
1956016S15140 1956 5 SP EA NOT_NAMED 1956-01-25 03:00:00 TS -19.8207 155.088 main 538 532 P_____P__PP___ SH111956 -20.3299 155.350 -1 -19.7703 154.473 -19.7884 154.491 TC -20.3536 155.392 1 7 141
1956016S15140 1956 5 SP EA NOT_NAMED 1956-01-25 06:00:00 TS -20.1125 155.345 bom main 537 537 O_____O__OP___ jtwc_sh SH111956 -20.7000 155.600 -1 -20.0000 154.700 -20.0000 154.700 TC -20.6996 155.663 1 9 139
1956016S15140 1956 5 SP EA NOT_NAMED 1956-01-25 09:00:00 TS -20.4716 155.683 main 540 530 P_____P__PP___ SH111956 -21.0225 155.900 -1 -20.2873 155.002 -20.2811 154.995 TC -21.0072 155.925 1 10 139
1956016S15140 1956 5 SP EA NOT_NAMED 1956-01-25 11:00:00 TS -20.7402 155.934 main 530 516 P_____P__PO___ SH111956 -21.2110 156.103 -1 -20.5077 155.237 -20.5028 155.231 TC -21.2000 156.100 1 11 139
1956016S15140 1956 5 SP EA NOT_NAMED 1956-01-25 12:00:00 TS -20.8813 156.062 main 521 503 O_____P__PP___ jtwc_sh SH111956 -21.3000 156.200 -1 -20.6258 155.363 -20.6230 155.358 TC -21.2905 156.182 1 11 141
1956016S15140 1956 5 SP EA NOT_NAMED 1956-01-25 15:00:00 TS -21.3287 156.445 main 503 489 P_____P__PP___ SH111956 -21.5499 156.450 -1 -21.0091 155.771 -21.0156 155.776 TC -21.5408 156.425 1 12 141
1956016S15140 1956 5 SP EA NOT_NAMED 1956-01-25 18:00:00 TS -21.7836 156.841 main 489 489 O_____P__PP___ jtwc_sh SH111956 -21.8000 156.700 -1 -21.4304 156.214 -21.4492 156.232 TC -21.7889 156.681 1 12 139
1956016S15140 1956 5 SP EA NOT_NAMED 1956-01-25 21:00:00 TS -22.1979 157.252 main 500 494 P_____P__PP___ SH111956 -22.0623 156.963 -1 -21.8835 156.681 -21.9139 156.712 TC -22.0726 156.973 1 11 137
1956016S15140 1956 5 SP EA NOT_NAMED 1956-01-25 23:00:00 TS -22.4797 157.533 968 bom main 498 498 P_____O__PO___ SH111956 -22.2744 157.175 -1 -22.2000 157.000 968 4 -22.2361 157.037 TC -22.3000 157.200 2 12 138
1956016S15140 1956 5 SP EA NOT_NAMED 1956-01-26 00:00:00 TS -22.6276 157.676 main 510 505 O_____P__OP___ jtwc_sh SH111956 -22.4000 157.300 -1 -22.3588 157.173 -22.4000 157.200 TC 75 968 -22.4317 157.331 2 12 140
1956016S15140 1956 5 SP EA NOT_NAMED 1956-01-26 03:00:00 TS -23.1094 158.116 main 522 522 P_____P__PP___ SH111956 -22.8626 157.770 -1 -22.8603 157.721 -22.8996 157.684 TC -22.8743 157.770 2 13 141
1956016S15140 1956 5 SP EA NOT_NAMED 1956-01-26 06:00:00 TS -23.6221 158.539 main 539 539 O_____P__PP___ jtwc_sh SH111956 -23.4000 158.300 -1 -23.3914 158.296 -23.4098 158.163 TC -23.3757 158.256 2 13 145
1956016S15140 1956 5 SP EA NOT_NAMED 1956-01-26 09:00:00 TS -24.1422 158.918 main 564 562 P_____P__PP___ SH111956 -23.9274 158.808 -1 -23.9423 158.877 -23.9290 158.637 TC -23.9204 158.763 2 13 147
1956016S15140 1956 5 SP EA NOT_NAMED 1956-01-26 11:00:00 TS -24.4983 159.154 main 587 586 P_____P__PO___ SH111956 -24.3026 159.139 -1 -24.3158 159.257 -24.2793 158.952 TC -24.3000 159.100 1 13 149
1956016S15140 1956 5 SP EA NOT_NAMED 1956-01-26 12:00:00 TS -24.6798 159.271 main 595 595 O_____P__PP___ jtwc_sh SH111956 -24.5000 159.300 -1 -24.5034 159.442 -24.4556 159.109 TC -24.4954 159.279 1 13 150
1956016S15140 1956 5 SP EA NOT_NAMED 1956-01-26 15:00:00 TS -25.2394 159.626 main 624 624 P_____P__PP___ SH111956 -25.1498 159.758 -1 -25.0653 159.968 -24.9878 159.580 TC -25.1072 159.823 1 13 151
1956016S15140 1956 5 SP EA NOT_NAMED 1956-01-26 18:00:00 TS -25.8091 159.965 main 668 668 O_____P__PP___ jtwc_sh SH111956 -25.8000 160.200 -1 -25.6190 160.431 -25.5239 160.051 TC -25.7303 160.340 1 13 153
1956016S15140 1956 5 SP MM NOT_NAMED 1956-01-26 21:00:00 TS -26.3974 160.284 main 691 687 P_____P__PP___ SH111956 -26.3877 160.702 -1 -26.1558 160.808 -26.0619 160.524 TC -26.3300 160.779 1 13 156
1956016S15140 1956 5 SP MM NOT_NAMED 1956-01-26 23:00:00 TS -26.7815 160.456 1000 bom main 697 694 P_____O__PO___ SH111956 -26.7391 160.990 -1 -26.5000 161.000 1000 -26.4208 160.841 TC -26.7000 161.000 1 12 160
1956016S15140 1956 5 SP MM NOT_NAMED 1956-01-27 00:00:00 TS -26.9704 160.516 main 692 689 O_____P__OP___ jtwc_sh SH111956 -26.9000 161.100 -1 -26.6672 161.075 -26.6000 161.000 TC 30 1000 -26.8659 161.081 1 11 166
1956016S15140 1956 5 SP MM NOT_NAMED 1956-01-27 03:00:00 TS -27.4738 160.650 main 701 696 P_____P___P___ SH111956 -27.3222 161.276 -1 -27.1495 161.222 TC -27.3261 161.231 1 10 168
1956016S15140 1956 5 SP MM NOT_NAMED 1956-01-27 06:00:00 TS -27.9073 160.733 main 696 695 O_____P___P___ jtwc_sh SH111956 -27.7000 161.300 -1 -27.6065 161.262 TC -27.7448 161.272 1 8 172
1956016S15140 1956 5 SP MM NOT_NAMED 1956-01-27 09:00:00 TS -28.2881 160.781 main 703 702 P_____P___P___ SH111956 -28.1000 161.280 -1 -28.0421 161.209 TC -28.1403 161.241 1 7 175
1956016S15140 1956 5 SP MM NOT_NAMED 1956-01-27 11:00:00 TS -28.5255 160.796 main 702 701 P_____P___O___ SH111956 -28.3667 161.230 -1 -28.3225 161.130 TC -28.4000 161.200 1 7 176
1956016S15140 1956 5 SP MM NOT_NAMED 1956-01-27 12:00:00 TS -28.6412 160.801 main 701 699 O_____P___P___ jtwc_sh SH111956 -28.5000 161.200 -1 -28.4600 161.080 TC -28.5109 161.180 1 7 178
1956016S15140 1956 5 SP MM NOT_NAMED 1956-01-27 15:00:00 TS -28.9983 160.818 main 699 699 P_____P___P___ SH111956 -28.8925 161.100 -1 -28.8640 160.889 TC -28.8274 161.088 1 7 179
1956016S15140 1956 5 SP MM NOT_NAMED 1956-01-27 18:00:00 TS -29.3653 160.825 main 700 700 O_____P___P___ jtwc_sh SH111956 -29.3000 161.000 -1 -29.2575 160.652 TC -29.1729 160.982 1 7 178
1956016S15140 1956 5 SP MM NOT_NAMED 1956-01-27 21:00:00 TS -29.7069 160.823 main 702 702 P_____P___P___ SH111956 -29.6750 160.920 -1 -29.6442 160.386 TC -29.6161 160.908 1 7 0
1956016S15140 1956 5 SP MM NOT_NAMED 1956-01-27 23:00:00 TS -29.9696 160.852 996 bom main 716 716 P_____O___O___ SH111956 -29.9960 160.897 -1 -29.9000 160.200 996 TC -30.0000 160.900 1 9 172
1956016S15140 1956 5 SP MM NOT_NAMED 1956-01-28 00:00:00 TS -30.1292 160.895 main 718 718 O_________P___ jtwc_sh SH111956 -30.2000 160.900 -1 -30.2435 160.893 1 11 172
1956016S15140 1956 5 SP MM NOT_NAMED 1956-01-28 03:00:00 TS -30.6855 160.972 main 740 740 P_________P___ SH111956 -31.0175 160.948 -1 -31.0922 160.915 1 13 171
1956016S15140 1956 5 SP MM NOT_NAMED 1956-01-28 06:00:00 TS -31.4093 161.139 main 759 759 O_________P___ jtwc_sh SH111956 -32.0000 161.100 -1 -32.0558 161.036 1 17 167
1956016S15140 1956 5 SP MM NOT_NAMED 1956-01-28 09:00:00 TS -32.3157 161.404 main 795 795 P_________P___ SH111956 -33.0143 161.304 -1 -33.0545 161.309 1 20 164
1956016S15140 1956 5 SP MM NOT_NAMED 1956-01-28 11:00:00 TS -32.9834 161.663 main 836 836 P_________O___ SH111956 -33.6838 161.539 -1 -33.7000 161.600 2 20 159
1956016S15140 1956 5 SP MM NOT_NAMED 1956-01-28 12:00:00 TS -33.2611 161.833 main 852 852 O_________P___ jtwc_sh SH111956 -34.0000 161.700 -1 -34.0083 161.784 2 21 153
1956016S15140 1956 5 SP MM NOT_NAMED 1956-01-28 15:00:00 TS -34.2364 162.422 main 932 876 P_________P___ SH111956 -34.8536 162.418 -1 -34.8747 162.476 2 22 152
1956016S15140 1956 5 SP MM NOT_NAMED 1956-01-28 18:00:00 TS -35.1889 163.083 main 868 823 O_________P___ jtwc_sh SH111956 -35.6000 163.200 -1 -35.6705 163.338 2 21 150
1956016S15140 1956 5 SP MM NOT_NAMED 1956-01-28 21:00:00 TS -36.0656 163.691 main 825 807 P_________P___ SH111956 -36.2414 163.719 -1 -36.4177 164.314 2 20 151
1956016S15140 1956 5 SP MM NOT_NAMED 1956-01-28 23:00:00 TS -36.6392 164.071 main 801 799 P_________O___ SH111956 -36.6678 164.031 -1 -36.9000 165.000 1 19 154
1956016S15140 1956 5 SP MM NOT_NAMED 1956-01-29 00:00:00 TS -36.9113 164.202 main 802 720 O_____________ jtwc_sh SH131956 -36.9000 164.200 -1 1 19 151
1956016S15140 1956 5 SP MM NOT_NAMED 1956-01-29 03:00:00 TS -37.7671 164.841 main 714 617 P_____________ SH131956 -37.7039 164.802 -1 1 20 149
1956016S15140 1956 5 SP MM NOT_NAMED 1956-01-29 06:00:00 TS -38.6000 165.500 main 617 O_____________ jtwc_sh SH131956 -38.6000 165.500 -1 1 20 148

Digital Typhoon Data and Search

About IBTrACS Database

This database is a web-friendly format of International Best Track Archive for Climate Stewardship (IBTrACS), a global best track data archive curated by NOAA dating back to 1842.

Updated: 2021-12-03